Time;durP1;ratioP1;P1;durP2;ratioP2;P2;SDS_P1;SDS_P2;PMS_P1;PMS_P2;Temp;Humidity;BMP_temperature;BMP_pressure;BME280_temperature;BME280_humidity;BME280_pressure;Samples;Min_cycle;Max_cycle;Signal;HPM_P1;HPM_P2
2024/01/22 00:02:52;;;;;;;13.57;7.60;;;-3.40;76.30;;;;;;6260987;28;20217;-63
2024/01/22 00:05:52;;;;;;;13.93;6.63;;;-3.40;77.40;;;;;;6282663;28;20206;-63
2024/01/22 00:08:53;;;;;;;11.17;7.07;;;-3.40;78.40;;;;;;6262633;28;20278;-63
2024/01/22 00:11:54;;;;;;;11.23;6.13;;;-3.50;76.80;;;;;;6272313;28;20198;-64
2024/01/22 00:14:54;;;;;;;9.73;6.47;;;-3.50;77.50;;;;;;6287563;28;20194;-63
2024/01/22 00:17:55;;;;;;;13.73;7.17;;;-3.50;76.20;;;;;;6261181;28;20265;-63
2024/01/22 00:20:56;;;;;;;12.23;6.07;;;-3.60;77.00;;;;;;6269670;28;20205;-63
2024/01/22 00:23:57;;;;;;;10.73;6.20;;;-3.60;73.40;;;;;;6265330;28;20215;-63
2024/01/22 00:26:58;;;;;;;8.80;6.30;;;-3.60;77.90;;;;;;6264087;28;20197;-63
2024/01/22 00:29:59;;;;;;;13.50;7.03;;;-3.60;79.00;;;;;;6257900;28;20191;-63
2024/01/22 00:33:00;;;;;;;12.97;6.70;;;-3.60;79.10;;;;;;6278682;28;20196;-63
2024/01/22 00:36:03;;;;;;;9.93;5.83;;;-3.60;78.80;;;;;;6284889;28;20237;-63
2024/01/22 00:39:03;;;;;;;11.63;7.10;;;-3.60;78.80;;;;;;6285727;28;20281;-63
2024/01/22 00:42:04;;;;;;;14.27;6.27;;;-3.60;76.80;;;;;;6281914;28;20215;-63
2024/01/22 00:45:06;;;;;;;10.00;6.43;;;-3.70;77.00;;;;;;6278802;28;20305;-63
2024/01/22 00:48:07;;;;;;;12.13;5.80;;;-3.70;77.40;;;;;;6270772;28;20188;-63
2024/01/22 00:51:08;;;;;;;11.10;5.77;;;-3.80;78.40;;;;;;6253113;28;20179;-63
2024/01/22 00:54:09;;;;;;;6.70;5.53;;;-3.80;79.60;;;;;;6266128;28;20192;-63
2024/01/22 00:57:09;;;;;;;9.00;5.80;;;-3.70;78.60;;;;;;6279419;28;20190;-63
2024/01/22 01:00:10;;;;;;;10.63;5.73;;;-3.70;78.20;;;;;;6279860;28;20246;-63
2024/01/22 01:03:11;;;;;;;11.27;6.40;;;-3.70;75.10;;;;;;6258024;28;20209;-63
2024/01/22 01:06:12;;;;;;;8.50;5.33;;;-3.80;79.10;;;;;;6281076;28;20192;-63
2024/01/22 01:09:12;;;;;;;14.97;5.73;;;-3.80;77.80;;;;;;6253393;28;20222;-63
2024/01/22 01:12:13;;;;;;;10.87;6.17;;;-3.80;77.80;;;;;;6286682;28;20190;-63
2024/01/22 01:15:14;;;;;;;8.03;5.50;;;-3.80;79.50;;;;;;6285163;28;20196;-63
2024/01/22 01:18:15;;;;;;;8.83;5.40;;;-3.80;77.30;;;;;;6277674;28;20216;-63
2024/01/22 01:21:17;;;;;;;7.73;5.53;;;-3.80;73.90;;;;;;6270224;28;20193;-63
2024/01/22 01:24:18;;;;;;;11.63;5.73;;;-3.90;73.20;;;;;;6267001;28;20272;-63
2024/01/22 01:27:19;;;;;;;9.03;5.80;;;-4.00;78.10;;;;;;6269756;28;20193;-63
2024/01/22 01:30:19;;;;;;;8.47;5.37;;;-4.00;78.70;;;;;;6269983;28;20215;-63
2024/01/22 01:33:20;;;;;;;9.20;6.40;;;-4.00;78.80;;;;;;6267478;28;20199;-63
2024/01/22 01:36:21;;;;;;;9.67;5.90;;;-4.00;76.60;;;;;;6267829;28;20283;-63
2024/01/22 01:39:22;;;;;;;12.20;6.53;;;-4.00;79.20;;;;;;6267903;28;20193;-63
2024/01/22 01:42:23;;;;;;;12.90;6.30;;;-4.00;78.00;;;;;;6261498;28;20279;-63
2024/01/22 01:45:23;;;;;;;8.67;5.77;;;-4.00;78.70;;;;;;6263133;28;20186;-64
2024/01/22 01:48:25;;;;;;;11.30;4.97;;;-4.10;79.30;;;;;;6268385;28;20212;-63
2024/01/22 01:51:25;;;;;;;9.00;5.33;;;-4.10;78.40;;;;;;6263736;28;20183;-63
2024/01/22 01:54:28;;;;;;;9.20;5.37;;;-4.00;77.00;;;;;;6274641;28;20198;-63
2024/01/22 01:57:29;;;;;;;7.07;5.13;;;-4.00;77.90;;;;;;6285595;28;20255;-63
2024/01/22 02:00:30;;;;;;;12.27;5.47;;;-4.10;78.00;;;;;;6289974;28;20250;-63
2024/01/22 02:03:30;;;;;;;11.60;5.60;;;-4.10;76.60;;;;;;6275006;28;20231;-63
2024/01/22 02:06:31;;;;;;;8.53;5.37;;;-4.10;78.40;;;;;;6262197;28;20187;-63
2024/01/22 02:09:48;;;;;;;9.07;5.80;;;-4.10;78.10;;;;;;6267927;28;20187;-63
2024/01/22 02:12:50;;;;;;;9.13;5.80;;;-4.10;78.20;;;;;;6300737;28;20203;-63
2024/01/22 02:15:50;;;;;;;7.60;5.00;;;-4.10;76.70;;;;;;6260024;28;20191;-63
2024/01/22 02:18:51;;;;;;;8.53;4.97;;;-4.10;75.80;;;;;;6289693;28;20212;-63
2024/01/22 02:21:52;;;;;;;7.33;4.70;;;-4.10;76.40;;;;;;6286573;28;20218;-63
2024/01/22 02:24:53;;;;;;;6.43;4.40;;;-4.20;76.50;;;;;;6270770;28;20227;-63
2024/01/22 02:27:53;;;;;;;9.47;5.13;;;-4.20;78.50;;;;;;6254224;28;20191;-63
2024/01/22 02:30:54;;;;;;;7.53;4.77;;;-4.20;76.90;;;;;;6279892;28;20186;-63
2024/01/22 02:33:55;;;;;;;7.77;4.93;;;-4.20;78.40;;;;;;6262676;28;20654;-63
2024/01/22 02:36:55;;;;;;;7.13;4.70;;;-4.20;77.40;;;;;;6277445;28;20203;-63
2024/01/22 02:39:56;;;;;;;7.90;4.50;;;-4.20;77.60;;;;;;6266995;28;20240;-63
2024/01/22 02:42:57;;;;;;;6.87;4.07;;;-4.20;77.40;;;;;;6271368;28;20205;-63
2024/01/22 02:45:58;;;;;;;7.03;4.47;;;-4.30;78.00;;;;;;6265009;28;20191;-63
2024/01/22 02:48:59;;;;;;;7.00;4.80;;;-4.20;77.40;;;;;;6260454;28;20215;-63
2024/01/22 02:51:59;;;;;;;7.40;4.07;;;-4.20;75.70;;;;;;6273706;28;20199;-63
2024/01/22 02:55:00;;;;;;;6.70;4.43;;;-4.30;77.20;;;;;;6289150;28;20189;-63
2024/01/22 02:58:01;;;;;;;7.67;5.53;;;-4.30;76.20;;;;;;6260136;28;20284;-63
2024/01/22 03:01:01;;;;;;;7.90;5.33;;;-4.30;78.10;;;;;;6272070;28;20344;-63
2024/01/22 03:04:02;;;;;;;8.93;5.30;;;-4.30;78.20;;;;;;6263055;28;20210;-63
2024/01/22 03:07:03;;;;;;;6.53;4.33;;;-4.30;77.50;;;;;;6270447;28;20244;-63
2024/01/22 03:10:04;;;;;;;7.50;4.87;;;-4.40;77.70;;;;;;6286186;28;20192;-63
2024/01/22 03:13:04;;;;;;;8.83;5.23;;;-4.40;76.10;;;;;;6256881;28;20236;-63
2024/01/22 03:16:06;;;;;;;12.00;5.47;;;-4.40;74.90;;;;;;6284294;28;20194;-63
2024/01/22 03:19:06;;;;;;;8.60;4.90;;;-4.40;76.90;;;;;;6284002;28;20190;-63
2024/01/22 03:22:07;;;;;;;6.73;4.03;;;-4.40;76.00;;;;;;6261970;28;20207;-63
2024/01/22 03:25:08;;;;;;;8.67;4.80;;;-4.50;76.50;;;;;;6253834;28;20193;-63
2024/01/22 03:28:09;;;;;;;10.63;5.37;;;-4.50;75.50;;;;;;6255237;28;20182;-63
2024/01/22 03:31:20;;;;;;;8.80;5.67;;;-4.50;76.20;;;;;;6281156;28;20186;-63
2024/01/22 03:34:21;;;;;;;7.83;5.10;;;-4.60;77.20;;;;;;6278819;28;20712;-63
2024/01/22 03:37:21;;;;;;;7.97;4.90;;;-4.60;75.70;;;;;;6272961;28;20185;-63
2024/01/22 03:40:22;;;;;;;9.17;5.40;;;-4.60;76.70;;;;;;6266566;28;20277;-63
2024/01/22 03:43:23;;;;;;;9.07;5.13;;;-4.50;74.50;;;;;;6270706;28;20241;-63
2024/01/22 03:46:24;;;;;;;9.00;5.07;;;-4.60;75.50;;;;;;6265801;28;20190;-63
2024/01/22 03:49:24;;;;;;;10.13;5.27;;;-4.60;74.70;;;;;;6278556;28;20185;-63
2024/01/22 03:52:25;;;;;;;8.77;5.50;;;-4.60;75.10;;;;;;6262203;28;20201;-63
2024/01/22 03:55:26;;;;;;;10.27;5.63;;;-4.60;74.90;;;;;;6265985;28;20189;-63
2024/01/22 03:58:26;;;;;;;8.57;5.20;;;-4.60;76.60;;;;;;6261139;28;20226;-63
2024/01/22 04:01:27;;;;;;;10.10;5.10;;;-4.60;75.90;;;;;;6282711;28;20230;-63
2024/01/22 04:04:28;;;;;;;9.03;5.33;;;-4.60;75.30;;;;;;6261233;28;20192;-63
2024/01/22 04:07:28;;;;;;;9.10;5.77;;;-4.60;76.60;;;;;;6272308;28;20186;-63
2024/01/22 04:10:29;;;;;;;9.13;5.17;;;-4.60;76.50;;;;;;6261259;28;20193;-64
2024/01/22 04:13:30;;;;;;;9.60;5.23;;;-4.60;76.50;;;;;;6291372;28;20217;-63
2024/01/22 04:16:31;;;;;;;7.63;5.77;;;-4.60;76.40;;;;;;6260799;28;20199;-63
2024/01/22 04:19:31;;;;;;;13.03;8.17;;;-4.60;75.70;;;;;;6271404;28;20217;-63
2024/01/22 04:22:32;;;;;;;11.23;7.20;;;-4.70;75.30;;;;;;6286718;28;20217;-63
2024/01/22 04:25:33;;;;;;;7.20;4.27;;;-4.80;75.60;;;;;;6272750;28;20188;-63
2024/01/22 04:28:33;;;;;;;11.87;6.10;;;-4.80;73.90;;;;;;6261597;28;20224;-63
2024/01/22 04:31:36;;;;;;;9.37;5.60;;;-4.80;75.10;;;;;;6294017;28;20268;-63
2024/01/22 04:34:39;;;;;;;8.27;5.43;;;-4.70;75.60;;;;;;6301952;28;20195;-63
2024/01/22 04:37:40;;;;;;;12.20;7.80;;;-4.80;75.50;;;;;;6266471;28;20199;-63
2024/01/22 04:40:41;;;;;;;10.27;6.93;;;;;;;;;;6260483;28;20194;-63
2024/01/22 04:43:42;;;;;;;11.63;7.80;;;-4.80;75.90;;;;;;6292861;28;20217;-63
2024/01/22 04:46:42;;;;;;;10.00;7.47;;;-4.80;75.50;;;;;;6261901;28;20272;-63
2024/01/22 04:49:43;;;;;;;11.77;7.63;;;-4.70;75.70;;;;;;6264302;28;20196;-63
2024/01/22 04:52:44;;;;;;;14.70;7.30;;;-4.80;75.70;;;;;;6265019;28;20201;-63
2024/01/22 04:55:44;;;;;;;9.47;6.20;;;-4.70;75.50;;;;;;6268889;28;20192;-62
2024/01/22 04:58:45;;;;;;;8.27;6.00;;;-4.70;75.40;;;;;;6292161;28;20205;-63
2024/01/22 05:01:46;;;;;;;7.47;4.60;;;-4.80;75.80;;;;;;6270014;28;20218;-63
2024/01/22 05:04:46;;;;;;;9.53;5.17;;;-4.80;74.20;;;;;;6270417;28;20279;-63
2024/01/22 05:07:47;;;;;;;9.90;5.13;;;-4.80;74.70;;;;;;6270583;28;20228;-62
2024/01/22 05:10:48;;;;;;;11.03;5.20;;;-4.90;75.10;;;;;;6270514;28;20202;-62
2024/01/22 05:13:50;;;;;;;8.17;5.20;;;-4.90;75.30;;;;;;6293110;28;20195;-62
2024/01/22 05:16:50;;;;;;;8.63;4.87;;;-4.90;75.10;;;;;;6291158;28;20186;-62
2024/01/22 05:19:53;;;;;;;8.27;5.80;;;-5.00;75.00;;;;;;6292493;28;20247;-62
2024/01/22 05:22:53;;;;;;;11.60;5.50;;;-5.00;74.70;;;;;;6261375;28;20210;-61
2024/01/22 05:25:54;;;;;;;9.13;5.70;;;-5.00;75.10;;;;;;6266429;28;20243;-62
2024/01/22 05:28:55;;;;;;;11.67;5.90;;;-5.00;75.10;;;;;;6259252;28;20236;-62
2024/01/22 05:31:56;;;;;;;8.93;5.53;;;-5.00;75.80;;;;;;6284308;28;20210;-62
2024/01/22 05:34:56;;;;;;;8.33;5.80;;;-5.10;75.30;;;;;;6283560;28;20238;-61
2024/01/22 05:37:57;;;;;;;7.73;5.47;;;-5.10;74.60;;;;;;6286025;28;20190;-62
2024/01/22 05:40:58;;;;;;;11.20;5.63;;;-5.10;74.90;;;;;;6292064;28;20203;-62
2024/01/22 05:43:59;;;;;;;7.37;5.90;;;;;;;;;;6269050;28;20225;-62
2024/01/22 05:47:00;;;;;;;14.43;6.20;;;;;;;;;;6284516;28;20353;-62
2024/01/22 05:50:01;;;;;;;13.37;7.20;;;;;;;;;;6292275;28;20186;-62
2024/01/22 05:53:02;;;;;;;13.10;6.47;;;;;;;;;;6293097;28;20190;-62
2024/01/22 05:56:03;;;;;;;13.03;7.17;;;;;;;;;;6289944;28;20198;-62
2024/01/22 05:59:04;;;;;;;10.83;6.33;;;;;;;;;;6285340;28;20229;-62
2024/01/22 06:02:05;;;;;;;13.23;7.17;;;;;;;;;;6290033;28;20214;-62
2024/01/22 06:05:07;;;;;;;14.83;7.10;;;;;;;;;;6311267;28;20185;-62
2024/01/22 06:08:08;;;;;;;10.20;6.30;;;;;;;;;;6296147;28;20199;-62
2024/01/22 06:11:09;;;;;;;11.20;7.57;;;;;;;;;;6309311;28;20189;-62
2024/01/22 06:14:10;;;;;;;10.90;6.90;;;;;;;;;;6288843;28;20194;-62
2024/01/22 06:17:11;;;;;;;13.13;7.30;;;;;;;;;;6289376;28;20192;-62
2024/01/22 06:20:12;;;;;;;17.10;7.17;;;;;;;;;;6284087;28;20206;-63
2024/01/22 06:23:13;;;;;;;12.47;6.40;;;;;;;;;;6298808;28;20286;-63
2024/01/22 06:26:15;;;;;;;12.40;6.43;;;;;;;;;;6290064;28;20339;-62
2024/01/22 06:29:17;;;;;;;9.50;6.37;;;;;;;;;;6299616;28;20194;-62
2024/01/22 06:32:18;;;;;;;10.37;6.53;;;;;;;;;;6285205;28;20209;-62
2024/01/22 06:35:19;;;;;;;11.93;7.37;;;;;;;;;;6288868;28;20244;-62
2024/01/22 06:38:20;;;;;;;10.53;6.87;;;;;;;;;;6280205;28;20198;-62
2024/01/22 06:41:23;;;;;;;12.10;6.10;;;;;;;;;;6288716;28;20208;-62
2024/01/22 06:44:24;;;;;;;12.03;6.40;;;;;;;;;;6283480;28;20224;-61
2024/01/22 06:47:25;;;;;;;8.20;5.40;;;;;;;;;;6283764;28;20262;-62
2024/01/22 06:50:26;;;;;;;11.80;7.30;;;;;;;;;;6270643;28;20249;-62
2024/01/22 06:53:27;;;;;;;10.60;5.60;;;;;;;;;;6283453;28;20249;-62
2024/01/22 06:56:28;;;;;;;11.13;6.93;;;;;;;;;;6299974;28;20194;-62
2024/01/22 06:59:30;;;;;;;12.23;6.03;;;;;;;;;;6269299;28;20247;-62
2024/01/22 07:02:31;;;;;;;10.23;5.10;;;;;;;;;;6287347;28;20239;-62
2024/01/22 07:05:34;;;;;;;8.50;5.23;;;;;;;;;;6287630;28;20217;-62
2024/01/22 07:08:35;;;;;;;8.10;5.23;;;;;;;;;;6296068;28;20201;-62
2024/01/22 07:11:37;;;;;;;10.70;5.77;;;;;;;;;;6288764;28;20281;-62
2024/01/22 07:14:39;;;;;;;9.17;5.27;;;;;;;;;;6292719;28;20197;-62
2024/01/22 07:17:40;;;;;;;7.03;5.27;;;;;;;;;;6294653;28;20201;-62
2024/01/22 07:20:41;;;;;;;9.53;5.13;;;;;;;;;;6306429;28;20209;-62
2024/01/22 07:23:42;;;;;;;10.63;6.10;;;;;;;;;;6294447;28;20246;-62
2024/01/22 07:26:43;;;;;;;9.90;5.20;;;;;;;;;;6280248;28;20190;-61
2024/01/22 07:29:44;;;;;;;10.90;5.87;;;;;;;;;;6278205;28;20186;-62
2024/01/22 07:32:47;;;;;;;7.33;5.00;;;;;;;;;;6280047;28;20208;-62
2024/01/22 07:35:48;;;;;;;10.07;4.93;;;;;;;;;;6307828;28;20199;-62
2024/01/22 07:38:54;;;;;;;8.33;5.47;;;;;;;;;;6282658;28;20199;-62
2024/01/22 07:41:55;;;;;;;9.13;5.50;;;;;;;;;;6273436;28;20243;-62
2024/01/22 07:44:56;;;;;;;9.17;5.73;;;;;;;;;;6272560;28;20281;-62
2024/01/22 07:47:57;;;;;;;8.80;5.63;;;;;;;;;;6276263;28;20281;-62
2024/01/22 07:50:58;;;;;;;9.37;5.33;;;;;;;;;;6306434;28;20253;-62
2024/01/22 07:53:59;;;;;;;9.73;5.20;;;;;;;;;;6288404;28;20224;-62
2024/01/22 07:57:00;;;;;;;9.57;6.00;;;;;;;;;;6289579;28;20194;-62
2024/01/22 08:00:02;;;;;;;15.90;5.97;;;;;;;;;;6297425;28;20246;-62
2024/01/22 08:03:03;;;;;;;9.90;5.93;;;-5.10;75.30;;;;;;6297249;28;20264;-62
2024/01/22 08:06:04;;;;;;;8.10;5.57;;;-4.50;75.00;;;;;;6254301;28;20195;-62
2024/01/22 08:09:05;;;;;;;9.47;5.87;;;-4.40;74.00;;;;;;6289273;28;20193;-62
2024/01/22 08:12:06;;;;;;;8.57;6.17;;;-4.30;74.50;;;;;;6270298;28;20195;-62
2024/01/22 08:15:07;;;;;;;10.67;6.37;;;-4.30;75.10;;;;;;6264807;28;20207;-61
2024/01/22 08:18:08;;;;;;;9.90;5.23;;;-4.20;75.60;;;;;;6267070;28;20205;-62
2024/01/22 08:21:09;;;;;;;9.77;5.60;;;;;;;;;;6270895;28;20191;-62
2024/01/22 08:24:10;;;;;;;6.93;4.37;;;;;;;;;;6283641;28;20309;-62
2024/01/22 08:27:11;;;;;;;8.57;5.63;;;;;;;;;;6298545;28;20239;-62
2024/01/22 08:30:13;;;;;;;7.73;5.07;;;;;;;;;;6285868;28;20219;-64
2024/01/22 08:33:14;;;;;;;6.97;4.30;;;;;;;;;;6289764;28;20198;-61
2024/01/22 08:36:15;;;;;;;13.93;4.67;;;;;;;;;;6298674;28;20193;-62
2024/01/22 08:39:16;;;;;;;7.10;4.90;;;;;;;;;;6293753;28;20221;-62
2024/01/22 08:42:17;;;;;;;8.27;5.30;;;;;;;;;;6290237;28;20237;-62
2024/01/22 08:45:19;;;;;;;8.53;5.20;;;-2.90;72.10;;;;;;6290777;28;20191;-62
2024/01/22 08:48:20;;;;;;;6.67;5.27;;;-3.20;72.50;;;;;;6290410;28;20186;-62
2024/01/22 08:51:20;;;;;;;11.57;5.93;;;-3.10;71.80;;;;;;6271451;28;20240;-62
2024/01/22 08:54:21;;;;;;;8.27;5.43;;;-3.00;71.20;;;;;;6280625;28;20193;-62
2024/01/22 08:57:22;;;;;;;8.97;5.47;;;-2.90;71.80;;;;;;6277553;28;20194;-62
2024/01/22 09:00:23;;;;;;;9.77;5.60;;;-2.80;71.00;;;;;;6273428;28;20248;-62
2024/01/22 09:03:25;;;;;;;10.40;6.80;;;;;;;;;;6282878;28;20209;-62
2024/01/22 09:06:26;;;;;;;10.13;6.57;;;;;;;;;;6290936;28;20191;-62
2024/01/22 09:09:27;;;;;;;9.60;6.87;;;-2.70;70.70;;;;;;6297738;28;20279;-62
2024/01/22 09:12:28;;;;;;;8.70;6.53;;;-2.40;69.60;;;;;;6278069;28;20190;-62
2024/01/22 09:15:28;;;;;;;9.30;6.77;;;-2.20;69.30;;;;;;6275948;28;20205;-63
2024/01/22 09:18:29;;;;;;;17.40;10.07;;;-2.10;69.30;;;;;;6271480;28;20651;-62
2024/01/22 09:21:30;;;;;;;19.13;10.30;;;-2.00;68.50;;;;;;6264425;28;20246;-63
2024/01/22 09:24:30;;;;;;;18.77;10.27;;;-1.90;68.90;;;;;;6272045;28;20212;-62
2024/01/22 09:27:31;;;;;;;17.30;10.93;;;-1.70;68.50;;;;;;6278996;28;20189;-62
2024/01/22 09:30:32;;;;;;;16.20;10.17;;;-1.60;68.40;;;;;;6300857;28;20191;-62
2024/01/22 09:33:33;;;;;;;18.07;10.80;;;-1.50;68.10;;;;;;6265358;28;20721;-63
2024/01/22 09:36:34;;;;;;;14.50;10.00;;;-1.40;68.00;;;;;;6277591;28;20195;-62
2024/01/22 09:39:35;;;;;;;15.10;9.60;;;-1.30;66.90;;;;;;6285927;28;20209;-62
2024/01/22 09:42:36;;;;;;;13.10;8.97;;;;;;;;;;6292459;28;20204;-63
2024/01/22 09:45:37;;;;;;;20.47;9.87;;;-1.20;66.90;;;;;;6296117;28;20211;-62
2024/01/22 09:48:38;;;;;;;15.43;9.93;;;-1.00;65.60;;;;;;6283394;28;20185;-63
2024/01/22 09:51:44;;;;;;;14.00;9.83;;;-0.90;66.10;;;;;;6292271;28;20195;-62
2024/01/22 09:54:45;;;;;;;15.43;9.33;;;-0.70;65.90;;;;;;6302861;28;20276;-62
2024/01/22 09:57:47;;;;;;;15.83;10.30;;;-0.60;64.80;;;;;;6295484;28;20226;-62
2024/01/22 10:00:49;;;;;;;16.70;10.20;;;-0.50;64.30;;;;;;6285396;28;20224;-62
2024/01/22 10:03:50;;;;;;;19.03;11.40;;;-0.40;64.80;;;;;;6283963;28;20220;-62
2024/01/22 10:06:51;;;;;;;16.40;10.87;;;-0.20;63.90;;;;;;6267426;28;20270;-63
2024/01/22 10:09:51;;;;;;;19.47;12.27;;;-0.10;64.50;;;;;;6260568;28;20195;-62
2024/01/22 10:13:14;;;;;;;28.47;12.37;;;0.00;64.20;;;;;;6273617;28;20279;-62
2024/01/22 10:16:14;;;;;;;22.43;13.20;;;0.00;63.70;;;;;;6277541;28;20188;-63
2024/01/22 10:19:15;;;;;;;19.53;12.00;;;0.10;64.00;;;;;;6270923;28;20193;-62
2024/01/22 10:22:20;;;;;;;19.20;12.83;;;0.20;63.40;;;;;;6268714;28;20209;-62
2024/01/22 10:25:20;;;;;;;21.67;12.10;;;0.10;63.10;;;;;;6271947;28;20238;-62
2024/01/22 10:28:21;;;;;;;25.00;11.97;;;0.20;63.60;;;;;;6293213;28;20180;-63
2024/01/22 10:31:22;;;;;;;20.33;11.47;;;0.30;63.20;;;;;;6283443;28;20222;-63
2024/01/22 10:34:40;;;;;;;24.90;11.17;;;0.40;62.40;;;;;;6268917;28;20192;-63
2024/01/22 10:37:41;;;;;;;14.83;10.33;;;0.50;61.30;;;;;;6306232;28;20196;-63
2024/01/22 10:40:45;;;;;;;14.33;10.30;;;0.60;60.70;;;;;;6285333;28;20256;-63
2024/01/22 10:43:46;;;;;;;14.13;9.50;;;0.70;60.50;;;;;;6292129;28;20220;-63
2024/01/22 10:46:48;;;;;;;17.07;9.87;;;0.80;60.30;;;;;;6299260;28;20188;-63
2024/01/22 10:49:51;;;;;;;14.23;9.23;;;0.90;60.20;;;;;;6274553;28;20181;-62
2024/01/22 10:52:54;;;;;;;12.20;8.33;;;1.00;60.00;;;;;;6287703;28;20196;-63
2024/01/22 10:56:11;;;;;;;17.73;10.33;;;1.10;57.90;;;;;;6279870;28;20189;-63
2024/01/22 10:59:19;;;;;;;18.80;9.73;;;1.20;58.70;;;;;;6306851;28;20341;-62
2024/01/22 11:02:23;;;;;;;16.33;10.93;;;1.40;57.80;;;;;;6302891;28;20204;-63
2024/01/22 11:05:29;;;;;;;19.83;10.37;;;1.30;58.50;;;;;;6286134;28;20280;-62
2024/01/22 11:08:34;;;;;;;18.97;11.13;;;1.40;58.50;;;;;;6299350;28;20186;-63
2024/01/22 11:11:38;;;;;;;16.07;8.83;;;1.60;57.90;;;;;;6307774;28;20184;-63
2024/01/22 11:14:40;;;;;;;13.97;8.97;;;1.70;57.90;;;;;;6299615;28;20242;-63
2024/01/22 11:17:41;;;;;;;12.33;8.33;;;1.80;56.80;;;;;;6300061;28;20516;-63
2024/01/22 11:20:42;;;;;;;17.43;8.60;;;1.80;55.40;;;;;;6266042;28;20200;-62
2024/01/22 11:23:43;;;;;;;16.83;7.93;;;1.70;55.40;;;;;;6273517;28;20208;-62
2024/01/22 11:27:01;;;;;;;14.97;8.30;;;1.70;54.20;;;;;;6280591;28;20406;-63
2024/01/22 11:30:24;;;;;;;14.20;8.33;;;1.80;54.40;;;;;;6281133;28;20210;-62
2024/01/22 11:33:28;;;;;;;14.17;8.37;;;1.70;55.20;;;;;;6297840;28;20191;-63
2024/01/22 11:36:47;;;;;;;15.07;9.20;;;1.80;55.70;;;;;;6304288;28;20196;-62
2024/01/22 11:39:48;;;;;;;15.37;8.90;;;1.80;55.70;;;;;;6306259;28;20189;-63
2024/01/22 11:42:49;;;;;;;13.23;9.17;;;1.90;56.20;;;;;;6264015;28;20203;-63
2024/01/22 11:45:53;;;;;;;15.10;10.03;;;2.00;56.60;;;;;;6272085;28;20185;-63
2024/01/22 11:48:54;;;;;;;12.60;9.47;;;2.00;56.20;;;;;;6296562;28;20188;-63
2024/01/22 11:51:55;;;;;;;14.90;10.00;;;2.00;56.40;;;;;;6303684;28;20184;-63
2024/01/22 11:55:01;;;;;;;16.40;10.10;;;2.00;56.90;;;;;;6271872;28;20208;-63
2024/01/22 11:58:08;;;;;;;16.37;9.50;;;2.00;56.50;;;;;;6305670;28;20184;-63
2024/01/22 12:01:12;;;;;;;15.53;10.13;;;2.00;56.80;;;;;;6276852;28;20235;-62
2024/01/22 12:04:12;;;;;;;13.00;9.80;;;2.00;56.20;;;;;;6268830;28;20219;-62
2024/01/22 12:07:13;;;;;;;16.67;9.50;;;2.10;56.30;;;;;;6258124;28;20180;-62
2024/01/22 12:10:25;;;;;;;15.60;10.50;;;2.20;56.20;;;;;;6267078;28;20192;-63
2024/01/22 12:13:26;;;;;;;13.27;9.57;;;2.40;55.50;;;;;;6302151;28;20209;-63
2024/01/22 12:16:26;;;;;;;13.83;10.17;;;2.50;55.00;;;;;;6265438;28;20199;-63
2024/01/22 12:19:27;;;;;;;16.43;10.17;;;2.60;55.00;;;;;;6264121;28;20188;-63
2024/01/22 12:22:28;;;;;;;17.33;10.60;;;2.80;55.20;;;;;;6288255;28;20311;-63
2024/01/22 12:25:39;;;;;;;16.30;9.67;;;2.80;54.10;;;;;;6264452;28;20284;-63
2024/01/22 12:28:41;;;;;;;15.57;9.10;;;2.80;53.50;;;;;;6297170;28;20185;-63
2024/01/22 12:31:42;;;;;;;12.27;8.43;;;2.70;53.70;;;;;;6276041;28;20280;-63
2024/01/22 12:34:53;;;;;;;14.93;9.87;;;2.80;54.00;;;;;;6257324;28;20199;-63
2024/01/22 12:37:54;;;;;;;14.07;9.40;;;2.80;53.20;;;;;;6290415;28;20242;-63
2024/01/22 12:41:00;;;;;;;13.77;9.30;;;2.80;53.40;;;;;;6259595;28;20192;-62
2024/01/22 12:44:01;;;;;;;13.20;9.23;;;2.70;54.40;;;;;;6278616;28;20217;-63
2024/01/22 12:47:01;;;;;;;12.57;8.73;;;2.80;54.80;;;;;;6265394;28;20192;-62
2024/01/22 12:50:02;;;;;;;15.43;9.90;;;2.80;54.80;;;;;;6264447;28;20185;-63
2024/01/22 12:53:03;;;;;;;14.80;9.50;;;2.90;55.00;;;;;;6268594;28;20334;-63
2024/01/22 12:56:07;;;;;;;15.73;9.37;;;2.90;54.40;;;;;;6270235;28;21716;-63
2024/01/22 12:59:07;;;;;;;13.87;9.37;;;2.90;55.40;;;;;;6271551;28;20245;-63
2024/01/22 13:02:08;;;;;;;18.17;10.83;;;3.00;54.70;;;;;;6261101;28;20325;-63
2024/01/22 13:05:09;;;;;;;12.63;9.80;;;3.10;54.40;;;;;;6285644;28;20243;-62
2024/01/22 13:08:10;;;;;;;13.87;9.20;;;3.30;54.80;;;;;;6260228;28;20199;-63
2024/01/22 13:11:11;;;;;;;12.03;8.43;;;3.30;54.30;;;;;;6283485;28;20190;-63
2024/01/22 13:14:11;;;;;;;15.83;9.27;;;3.30;54.30;;;;;;6259432;28;20213;-62
2024/01/22 13:17:12;;;;;;;14.07;9.13;;;3.50;53.90;;;;;;6274119;28;20194;-62
2024/01/22 13:20:13;;;;;;;12.87;8.60;;;3.60;53.60;;;;;;6276706;28;20216;-63
2024/01/22 13:23:14;;;;;;;15.77;8.67;;;3.70;53.40;;;;;;6271205;28;20224;-63
2024/01/22 13:26:15;;;;;;;17.70;9.40;;;3.60;53.40;;;;;;6292244;28;20221;-63
2024/01/22 13:29:15;;;;;;;14.00;8.83;;;3.50;53.20;;;;;;6280378;28;20193;-63
2024/01/22 13:32:19;;;;;;;12.67;8.50;;;3.50;53.60;;;;;;6261279;28;20203;-63
2024/01/22 13:35:20;;;;;;;12.93;8.33;;;3.30;54.20;;;;;;6264889;28;20250;-63
2024/01/22 13:38:21;;;;;;;16.47;9.00;;;3.20;54.30;;;;;;6292609;28;20192;-63
2024/01/22 13:41:22;;;;;;;15.50;9.13;;;3.10;54.60;;;;;;6269025;28;20705;-63
2024/01/22 13:44:22;;;;;;;14.83;8.90;;;3.20;54.00;;;;;;6271752;28;20216;-62
2024/01/22 13:47:23;;;;;;;10.00;8.10;;;3.30;54.30;;;;;;6269479;28;20185;-63
2024/01/22 13:50:24;;;;;;;11.37;8.17;;;3.30;54.70;;;;;;6286442;28;20331;-63
2024/01/22 13:53:25;;;;;;;17.77;8.97;;;3.40;54.80;;;;;;6280601;28;20195;-63
2024/01/22 13:56:25;;;;;;;12.57;8.93;;;3.50;54.50;;;;;;6269084;28;20196;-63
2024/01/22 13:59:28;;;;;;;13.77;8.93;;;3.50;54.60;;;;;;6267132;28;20237;-62
2024/01/22 14:02:30;;;;;;;17.60;8.50;;;3.60;54.50;;;;;;6280374;28;20204;-68
2024/01/22 14:05:30;;;;;;;11.20;8.80;;;3.60;54.60;;;;;;6284113;28;20189;-68
2024/01/22 14:08:31;;;;;;;15.30;9.20;;;3.70;54.70;;;;;;6257240;28;20195;-68
2024/01/22 14:11:32;;;;;;;16.20;10.03;;;3.70;54.60;;;;;;6263772;28;20181;-68
2024/01/22 14:14:33;;;;;;;13.40;9.17;;;3.70;54.40;;;;;;6280527;28;20196;-68
2024/01/22 14:17:33;;;;;;;17.97;9.50;;;3.50;54.30;;;;;;6254611;28;20193;-68
2024/01/22 14:20:35;;;;;;;13.23;9.40;;;3.30;55.40;;;;;;6272656;28;20199;-68
2024/01/22 14:23:37;;;;;;;14.23;8.57;;;3.20;55.60;;;;;;6306467;28;20209;-68
2024/01/22 14:26:38;;;;;;;13.60;9.23;;;3.10;55.80;;;;;;6293171;28;20231;-68
2024/01/22 14:29:38;;;;;;;9.87;7.97;;;3.10;56.00;;;;;;6257382;28;20195;-68
2024/01/22 14:32:40;;;;;;;14.77;9.03;;;3.10;56.20;;;;;;6265329;28;20208;-67
2024/01/22 14:35:41;;;;;;;16.77;9.33;;;3.10;56.20;;;;;;6283634;28;20185;-68
2024/01/22 14:38:41;;;;;;;13.43;8.87;;;2.80;56.70;;;;;;6282530;28;20222;-68
2024/01/22 14:41:42;;;;;;;13.60;9.17;;;2.70;57.20;;;;;;6278079;28;20220;-69
2024/01/22 14:44:43;;;;;;;17.63;10.17;;;2.70;57.10;;;;;;6265029;28;20209;-68
2024/01/22 14:47:45;;;;;;;17.77;10.13;;;2.50;57.00;;;;;;6267878;28;20190;-68
2024/01/22 14:50:45;;;;;;;15.83;9.87;;;2.50;57.80;;;;;;6260830;28;20276;-67
2024/01/22 14:53:46;;;;;;;13.07;8.53;;;2.40;58.50;;;;;;6282430;28;20213;-67
2024/01/22 14:56:47;;;;;;;12.80;8.00;;;2.40;59.20;;;;;;6268996;28;20196;-67
2024/01/22 14:59:48;;;;;;;14.03;8.60;;;2.40;59.50;;;;;;6267316;28;20232;-68
2024/01/22 15:02:48;;;;;;;14.43;8.60;;;2.30;59.60;;;;;;6285340;28;20209;-68
2024/01/22 15:05:49;;;;;;;15.10;8.37;;;2.30;59.60;;;;;;6260471;28;20310;-69
2024/01/22 15:08:50;;;;;;;12.80;8.83;;;2.20;59.80;;;;;;6270391;28;20185;-68
2024/01/22 15:11:51;;;;;;;11.50;7.80;;;2.20;59.40;;;;;;6267033;28;20181;-68
2024/01/22 15:14:52;;;;;;;11.67;8.10;;;2.10;60.20;;;;;;6269135;28;20200;-70
2024/01/22 15:17:53;;;;;;;11.47;8.63;;;2.10;60.40;;;;;;6276726;28;20283;-70
2024/01/22 15:20:54;;;;;;;14.50;8.30;;;2.10;60.50;;;;;;6268069;28;20197;-69
2024/01/22 15:23:54;;;;;;;16.13;9.80;;;2.10;60.80;;;;;;6258525;28;20216;-68
2024/01/22 15:26:55;;;;;;;13.07;8.07;;;2.00;61.00;;;;;;6291294;28;20189;-69
2024/01/22 15:29:56;;;;;;;16.63;9.73;;;1.90;61.40;;;;;;6269129;28;20199;-69
2024/01/22 15:32:56;;;;;;;11.57;8.43;;;1.90;61.90;;;;;;6282550;28;20215;-69
2024/01/22 15:35:57;;;;;;;13.53;8.33;;;1.80;62.30;;;;;;6266947;28;20209;-69
2024/01/22 15:38:58;;;;;;;13.37;9.43;;;1.80;62.70;;;;;;6265272;28;20194;-69
2024/01/22 15:41:59;;;;;;;12.30;9.43;;;1.80;62.90;;;;;;6275956;28;20204;-69
2024/01/22 15:44:59;;;;;;;12.80;8.57;;;1.70;63.70;;;;;;6269326;28;20304;-68
2024/01/22 15:48:00;;;;;;;16.23;11.20;;;1.70;63.60;;;;;;6268075;28;20252;-67
2024/01/22 15:51:01;;;;;;;16.80;10.33;;;1.60;63.60;;;;;;6266554;28;20201;-67
2024/01/22 15:54:02;;;;;;;12.73;9.40;;;1.60;63.60;;;;;;6286755;28;20247;-67
2024/01/22 15:57:03;;;;;;;20.57;10.20;;;1.60;63.60;;;;;;6256545;28;20280;-68
2024/01/22 16:00:05;;;;;;;16.43;9.63;;;1.60;63.80;;;;;;6272992;28;20258;-67
2024/01/22 16:03:06;;;;;;;19.37;10.43;;;1.60;63.80;;;;;;6287489;28;20265;-67